sensor_id;sensor_type;location;lat;lon;timestamp;temperature;humidity
45837;DHT22;31548;51.420;-0.040;2023-05-07T00:01:52;14.20;99.90
45837;DHT22;31548;51.420;-0.040;2023-05-07T00:04:20;14.10;99.90
45837;DHT22;31548;51.420;-0.040;2023-05-07T00:06:48;14.20;99.90
45837;DHT22;31548;51.420;-0.040;2023-05-07T00:09:15;14.20;99.90
45837;DHT22;31548;51.420;-0.040;2023-05-07T00:11:43;14.20;99.90
45837;DHT22;31548;51.420;-0.040;2023-05-07T00:14:11;14.10;99.90
45837;DHT22;31548;51.420;-0.040;2023-05-07T00:16:38;14.10;99.90
45837;DHT22;31548;51.420;-0.040;2023-05-07T00:19:06;14.10;99.90
45837;DHT22;31548;51.420;-0.040;2023-05-07T00:21:34;14.10;99.90
45837;DHT22;31548;51.420;-0.040;2023-05-07T00:24:01;14.10;99.90
45837;DHT22;31548;51.420;-0.040;2023-05-07T00:26:28;14.10;99.90
45837;DHT22;31548;51.420;-0.040;2023-05-07T00:28:56;14.00;99.90
45837;DHT22;31548;51.420;-0.040;2023-05-07T00:31:24;14.00;99.90
45837;DHT22;31548;51.420;-0.040;2023-05-07T00:33:52;14.00;99.90
45837;DHT22;31548;51.420;-0.040;2023-05-07T00:36:19;14.00;99.90
45837;DHT22;31548;51.420;-0.040;2023-05-07T00:38:47;14.00;99.90
45837;DHT22;31548;51.420;-0.040;2023-05-07T00:41:15;14.00;99.90
45837;DHT22;31548;51.420;-0.040;2023-05-07T00:43:42;14.10;99.90
45837;DHT22;31548;51.420;-0.040;2023-05-07T00:46:10;14.00;99.90
45837;DHT22;31548;51.420;-0.040;2023-05-07T00:48:40;14.00;99.90
45837;DHT22;31548;51.420;-0.040;2023-05-07T00:51:07;14.00;99.90
45837;DHT22;31548;51.420;-0.040;2023-05-07T00:53:36;14.00;99.90
45837;DHT22;31548;51.420;-0.040;2023-05-07T00:56:04;14.00;99.90
45837;DHT22;31548;51.420;-0.040;2023-05-07T00:58:33;13.90;99.90
45837;DHT22;31548;51.420;-0.040;2023-05-07T01:01:02;13.90;99.90
45837;DHT22;31548;51.420;-0.040;2023-05-07T01:03:29;13.90;99.90
45837;DHT22;31548;51.420;-0.040;2023-05-07T01:05:59;13.90;99.90
45837;DHT22;31548;51.420;-0.040;2023-05-07T01:08:28;14.00;99.90
45837;DHT22;31548;51.420;-0.040;2023-05-07T01:10:57;13.90;99.90
45837;DHT22;31548;51.420;-0.040;2023-05-07T01:13:25;13.90;99.90
45837;DHT22;31548;51.420;-0.040;2023-05-07T01:15:53;13.90;99.90
45837;DHT22;31548;51.420;-0.040;2023-05-07T01:18:21;13.80;99.90
45837;DHT22;31548;51.420;-0.040;2023-05-07T01:20:49;13.80;99.90
45837;DHT22;31548;51.420;-0.040;2023-05-07T01:23:17;13.80;99.90
45837;DHT22;31548;51.420;-0.040;2023-05-07T01:25:52;13.80;99.90
45837;DHT22;31548;51.420;-0.040;2023-05-07T01:28:22;13.80;99.90
45837;DHT22;31548;51.420;-0.040;2023-05-07T01:30:53;13.80;99.90
45837;DHT22;31548;51.420;-0.040;2023-05-07T01:33:23;13.80;99.90
45837;DHT22;31548;51.420;-0.040;2023-05-07T01:35:53;13.70;99.90
45837;DHT22;31548;51.420;-0.040;2023-05-07T01:38:22;13.70;99.90
45837;DHT22;31548;51.420;-0.040;2023-05-07T01:40:50;13.70;99.90
45837;DHT22;31548;51.420;-0.040;2023-05-07T01:43:19;13.70;99.90
45837;DHT22;31548;51.420;-0.040;2023-05-07T01:45:47;13.60;99.90
45837;DHT22;31548;51.420;-0.040;2023-05-07T01:48:16;13.60;99.90
45837;DHT22;31548;51.420;-0.040;2023-05-07T01:50:44;13.60;99.90
45837;DHT22;31548;51.420;-0.040;2023-05-07T01:53:12;13.60;99.90
45837;DHT22;31548;51.420;-0.040;2023-05-07T01:55:40;13.50;99.90
45837;DHT22;31548;51.420;-0.040;2023-05-07T01:58:08;13.50;99.90
45837;DHT22;31548;51.420;-0.040;2023-05-07T02:00:35;13.50;99.90
45837;DHT22;31548;51.420;-0.040;2023-05-07T02:03:04;13.40;99.90
45837;DHT22;31548;51.420;-0.040;2023-05-07T02:05:45;13.40;99.90
45837;DHT22;31548;51.420;-0.040;2023-05-07T02:08:27;13.40;99.90
45837;DHT22;31548;51.420;-0.040;2023-05-07T02:10:55;13.40;99.90
45837;DHT22;31548;51.420;-0.040;2023-05-07T02:13:25;13.40;99.90
45837;DHT22;31548;51.420;-0.040;2023-05-07T02:15:53;13.40;99.90
45837;DHT22;31548;51.420;-0.040;2023-05-07T02:18:22;13.40;99.90
45837;DHT22;31548;51.420;-0.040;2023-05-07T02:20:50;13.40;99.90
45837;DHT22;31548;51.420;-0.040;2023-05-07T02:23:17;13.40;99.90
45837;DHT22;31548;51.420;-0.040;2023-05-07T02:25:45;13.40;99.90
45837;DHT22;31548;51.420;-0.040;2023-05-07T02:28:13;13.40;99.90
45837;DHT22;31548;51.420;-0.040;2023-05-07T02:30:49;13.50;99.90
45837;DHT22;31548;51.420;-0.040;2023-05-07T02:33:18;13.50;99.90
45837;DHT22;31548;51.420;-0.040;2023-05-07T02:35:46;13.50;99.90
45837;DHT22;31548;51.420;-0.040;2023-05-07T02:38:15;13.50;99.90
45837;DHT22;31548;51.420;-0.040;2023-05-07T02:40:43;13.50;99.90
45837;DHT22;31548;51.420;-0.040;2023-05-07T02:43:11;13.60;99.90
45837;DHT22;31548;51.420;-0.040;2023-05-07T02:45:42;13.50;99.90
45837;DHT22;31548;51.420;-0.040;2023-05-07T02:48:11;13.50;99.90
45837;DHT22;31548;51.420;-0.040;2023-05-07T02:50:38;13.50;99.90
45837;DHT22;31548;51.420;-0.040;2023-05-07T02:53:06;13.50;99.90
45837;DHT22;31548;51.420;-0.040;2023-05-07T02:55:33;13.50;99.90
45837;DHT22;31548;51.420;-0.040;2023-05-07T02:58:01;13.50;99.90
45837;DHT22;31548;51.420;-0.040;2023-05-07T03:00:32;13.50;99.90
45837;DHT22;31548;51.420;-0.040;2023-05-07T03:03:20;13.50;99.90
45837;DHT22;31548;51.420;-0.040;2023-05-07T03:05:47;13.40;99.90
45837;DHT22;31548;51.420;-0.040;2023-05-07T03:08:15;13.40;99.90
45837;DHT22;31548;51.420;-0.040;2023-05-07T03:10:42;13.40;99.90
45837;DHT22;31548;51.420;-0.040;2023-05-07T03:13:10;13.40;99.90
45837;DHT22;31548;51.420;-0.040;2023-05-07T03:15:38;13.40;99.90
45837;DHT22;31548;51.420;-0.040;2023-05-07T03:18:05;13.50;99.90
45837;DHT22;31548;51.420;-0.040;2023-05-07T03:20:33;13.40;99.90
45837;DHT22;31548;51.420;-0.040;2023-05-07T03:23:02;13.40;99.90
45837;DHT22;31548;51.420;-0.040;2023-05-07T03:25:29;13.40;99.90
45837;DHT22;31548;51.420;-0.040;2023-05-07T03:27:57;13.50;99.90
45837;DHT22;31548;51.420;-0.040;2023-05-07T03:30:32;13.40;99.90
45837;DHT22;31548;51.420;-0.040;2023-05-07T03:32:59;13.40;99.90
45837;DHT22;31548;51.420;-0.040;2023-05-07T03:35:27;13.40;99.90
45837;DHT22;31548;51.420;-0.040;2023-05-07T03:37:55;13.40;99.90
45837;DHT22;31548;51.420;-0.040;2023-05-07T03:40:23;13.40;99.90
45837;DHT22;31548;51.420;-0.040;2023-05-07T03:42:53;13.40;99.90
45837;DHT22;31548;51.420;-0.040;2023-05-07T03:45:24;13.40;99.90
45837;DHT22;31548;51.420;-0.040;2023-05-07T03:48:00;13.40;99.90
45837;DHT22;31548;51.420;-0.040;2023-05-07T03:50:28;13.40;99.90
45837;DHT22;31548;51.420;-0.040;2023-05-07T03:52:56;13.30;99.90
45837;DHT22;31548;51.420;-0.040;2023-05-07T03:55:23;13.40;99.90
45837;DHT22;31548;51.420;-0.040;2023-05-07T03:57:56;13.40;99.90
45837;DHT22;31548;51.420;-0.040;2023-05-07T04:00:26;13.40;99.90
45837;DHT22;31548;51.420;-0.040;2023-05-07T04:02:58;13.40;99.90
45837;DHT22;31548;51.420;-0.040;2023-05-07T04:05:30;13.40;99.90
45837;DHT22;31548;51.420;-0.040;2023-05-07T04:08:01;13.30;99.90
45837;DHT22;31548;51.420;-0.040;2023-05-07T04:10:36;13.30;99.90
45837;DHT22;31548;51.420;-0.040;2023-05-07T04:13:08;13.40;99.90
45837;DHT22;31548;51.420;-0.040;2023-05-07T04:15:36;13.30;99.90
45837;DHT22;31548;51.420;-0.040;2023-05-07T04:18:07;13.30;99.90
45837;DHT22;31548;51.420;-0.040;2023-05-07T04:20:36;13.30;99.90
45837;DHT22;31548;51.420;-0.040;2023-05-07T04:23:10;13.30;99.90
45837;DHT22;31548;51.420;-0.040;2023-05-07T04:25:38;13.40;99.90
45837;DHT22;31548;51.420;-0.040;2023-05-07T04:28:11;13.40;99.90
45837;DHT22;31548;51.420;-0.040;2023-05-07T04:30:40;13.30;99.90
45837;DHT22;31548;51.420;-0.040;2023-05-07T04:33:09;13.40;99.90
45837;DHT22;31548;51.420;-0.040;2023-05-07T04:35:38;13.40;99.90
45837;DHT22;31548;51.420;-0.040;2023-05-07T04:38:06;13.40;99.90
45837;DHT22;31548;51.420;-0.040;2023-05-07T04:40:35;13.30;99.90
45837;DHT22;31548;51.420;-0.040;2023-05-07T04:43:04;13.30;99.90
45837;DHT22;31548;51.420;-0.040;2023-05-07T04:45:38;13.30;99.90
45837;DHT22;31548;51.420;-0.040;2023-05-07T04:48:09;13.30;99.90
45837;DHT22;31548;51.420;-0.040;2023-05-07T04:50:39;13.30;99.90
45837;DHT22;31548;51.420;-0.040;2023-05-07T04:53:07;13.30;99.90
45837;DHT22;31548;51.420;-0.040;2023-05-07T04:55:35;13.30;99.90
45837;DHT22;31548;51.420;-0.040;2023-05-07T04:58:04;13.30;99.90
45837;DHT22;31548;51.420;-0.040;2023-05-07T05:00:34;13.30;99.90
45837;DHT22;31548;51.420;-0.040;2023-05-07T05:03:05;13.40;99.90
45837;DHT22;31548;51.420;-0.040;2023-05-07T05:05:33;13.40;99.90
45837;DHT22;31548;51.420;-0.040;2023-05-07T05:08:02;13.40;99.90
45837;DHT22;31548;51.420;-0.040;2023-05-07T05:10:29;13.40;99.90
45837;DHT22;31548;51.420;-0.040;2023-05-07T05:12:57;13.40;99.90
45837;DHT22;31548;51.420;-0.040;2023-05-07T05:15:26;13.30;99.90
45837;DHT22;31548;51.420;-0.040;2023-05-07T05:17:54;13.40;99.90
45837;DHT22;31548;51.420;-0.040;2023-05-07T05:20:22;13.40;99.90
45837;DHT22;31548;51.420;-0.040;2023-05-07T05:22:49;13.40;99.90
45837;DHT22;31548;51.420;-0.040;2023-05-07T05:25:17;13.30;99.90
45837;DHT22;31548;51.420;-0.040;2023-05-07T05:27:45;13.30;99.90
45837;DHT22;31548;51.420;-0.040;2023-05-07T05:30:13;13.30;99.90
45837;DHT22;31548;51.420;-0.040;2023-05-07T05:32:44;13.30;99.90
45837;DHT22;31548;51.420;-0.040;2023-05-07T05:35:11;13.30;99.90
45837;DHT22;31548;51.420;-0.040;2023-05-07T05:37:40;13.40;99.90
45837;DHT22;31548;51.420;-0.040;2023-05-07T05:40:08;13.30;99.90
45837;DHT22;31548;51.420;-0.040;2023-05-07T05:42:37;13.30;99.90
45837;DHT22;31548;51.420;-0.040;2023-05-07T05:45:05;13.30;99.90
45837;DHT22;31548;51.420;-0.040;2023-05-07T05:47:34;13.30;99.90
45837;DHT22;31548;51.420;-0.040;2023-05-07T05:50:01;13.40;99.90
45837;DHT22;31548;51.420;-0.040;2023-05-07T05:52:30;13.40;99.90
45837;DHT22;31548;51.420;-0.040;2023-05-07T05:54:58;13.30;99.90
45837;DHT22;31548;51.420;-0.040;2023-05-07T05:57:27;13.40;99.90
45837;DHT22;31548;51.420;-0.040;2023-05-07T05:59:55;13.40;99.90
45837;DHT22;31548;51.420;-0.040;2023-05-07T06:02:24;13.30;99.90
45837;DHT22;31548;51.420;-0.040;2023-05-07T06:04:52;13.50;99.90
45837;DHT22;31548;51.420;-0.040;2023-05-07T06:07:22;13.50;99.90
45837;DHT22;31548;51.420;-0.040;2023-05-07T06:09:50;13.50;99.90
45837;DHT22;31548;51.420;-0.040;2023-05-07T06:12:18;13.60;99.90
45837;DHT22;31548;51.420;-0.040;2023-05-07T06:14:47;13.60;99.90
45837;DHT22;31548;51.420;-0.040;2023-05-07T06:17:15;13.50;99.90
45837;DHT22;31548;51.420;-0.040;2023-05-07T06:19:47;13.60;99.90
45837;DHT22;31548;51.420;-0.040;2023-05-07T06:22:17;13.60;99.90
45837;DHT22;31548;51.420;-0.040;2023-05-07T06:24:45;13.60;99.90
45837;DHT22;31548;51.420;-0.040;2023-05-07T06:27:13;13.60;99.90
45837;DHT22;31548;51.420;-0.040;2023-05-07T06:29:41;13.60;99.90
45837;DHT22;31548;51.420;-0.040;2023-05-07T06:32:14;13.50;99.90
45837;DHT22;31548;51.420;-0.040;2023-05-07T06:34:43;13.60;99.90
45837;DHT22;31548;51.420;-0.040;2023-05-07T06:37:12;13.60;99.90
45837;DHT22;31548;51.420;-0.040;2023-05-07T06:40:02;13.60;99.90
45837;DHT22;31548;51.420;-0.040;2023-05-07T06:42:31;13.60;99.90
45837;DHT22;31548;51.420;-0.040;2023-05-07T06:45:16;13.50;99.90
45837;DHT22;31548;51.420;-0.040;2023-05-07T06:47:43;13.60;99.90
45837;DHT22;31548;51.420;-0.040;2023-05-07T06:50:13;13.60;99.90
45837;DHT22;31548;51.420;-0.040;2023-05-07T06:52:44;13.60;99.90
45837;DHT22;31548;51.420;-0.040;2023-05-07T06:55:11;13.50;99.90
45837;DHT22;31548;51.420;-0.040;2023-05-07T06:57:39;13.50;99.90
45837;DHT22;31548;51.420;-0.040;2023-05-07T07:00:07;13.50;99.90
45837;DHT22;31548;51.420;-0.040;2023-05-07T07:02:46;13.50;99.90
45837;DHT22;31548;51.420;-0.040;2023-05-07T07:05:16;13.60;99.90
45837;DHT22;31548;51.420;-0.040;2023-05-07T07:07:44;13.60;99.90
45837;DHT22;31548;51.420;-0.040;2023-05-07T07:10:14;13.60;99.90
45837;DHT22;31548;51.420;-0.040;2023-05-07T07:12:41;13.70;99.90
45837;DHT22;31548;51.420;-0.040;2023-05-07T07:15:09;13.70;99.90
45837;DHT22;31548;51.420;-0.040;2023-05-07T07:17:37;13.80;99.90
45837;DHT22;31548;51.420;-0.040;2023-05-07T07:20:06;13.80;99.90
45837;DHT22;31548;51.420;-0.040;2023-05-07T07:22:34;13.80;99.90
45837;DHT22;31548;51.420;-0.040;2023-05-07T07:25:01;13.80;99.90
45837;DHT22;31548;51.420;-0.040;2023-05-07T07:27:29;13.80;99.90
45837;DHT22;31548;51.420;-0.040;2023-05-07T07:29:57;13.80;99.90
45837;DHT22;31548;51.420;-0.040;2023-05-07T07:32:30;13.90;99.90
45837;DHT22;31548;51.420;-0.040;2023-05-07T07:34:59;13.90;99.90
45837;DHT22;31548;51.420;-0.040;2023-05-07T07:37:27;13.90;99.90
45837;DHT22;31548;51.420;-0.040;2023-05-07T07:39:56;13.90;99.90
45837;DHT22;31548;51.420;-0.040;2023-05-07T07:42:24;14.00;99.90
45837;DHT22;31548;51.420;-0.040;2023-05-07T07:44:53;14.00;99.90
45837;DHT22;31548;51.420;-0.040;2023-05-07T07:47:22;14.00;99.90
45837;DHT22;31548;51.420;-0.040;2023-05-07T07:49:51;14.10;99.90
45837;DHT22;31548;51.420;-0.040;2023-05-07T07:52:19;14.10;99.90
45837;DHT22;31548;51.420;-0.040;2023-05-07T07:54:47;14.20;99.90
45837;DHT22;31548;51.420;-0.040;2023-05-07T07:57:15;14.30;99.90
45837;DHT22;31548;51.420;-0.040;2023-05-07T07:59:42;14.30;99.90
45837;DHT22;31548;51.420;-0.040;2023-05-07T08:02:12;14.40;99.90
45837;DHT22;31548;51.420;-0.040;2023-05-07T08:04:40;14.30;99.90
45837;DHT22;31548;51.420;-0.040;2023-05-07T08:07:10;14.40;99.90
45837;DHT22;31548;51.420;-0.040;2023-05-07T08:09:40;14.50;99.90
45837;DHT22;31548;51.420;-0.040;2023-05-07T08:12:09;14.50;99.90
45837;DHT22;31548;51.420;-0.040;2023-05-07T08:14:38;14.30;99.90
45837;DHT22;31548;51.420;-0.040;2023-05-07T08:17:07;14.40;99.90
45837;DHT22;31548;51.420;-0.040;2023-05-07T08:19:35;14.50;99.90
45837;DHT22;31548;51.420;-0.040;2023-05-07T08:22:04;14.60;99.90
45837;DHT22;31548;51.420;-0.040;2023-05-07T08:24:34;14.70;99.90
45837;DHT22;31548;51.420;-0.040;2023-05-07T08:27:02;14.80;99.90
45837;DHT22;31548;51.420;-0.040;2023-05-07T08:29:29;15.00;99.90
45837;DHT22;31548;51.420;-0.040;2023-05-07T08:31:59;15.00;99.90
45837;DHT22;31548;51.420;-0.040;2023-05-07T08:34:26;15.20;99.90
45837;DHT22;31548;51.420;-0.040;2023-05-07T08:36:56;15.10;99.90
45837;DHT22;31548;51.420;-0.040;2023-05-07T08:39:24;15.30;99.90
45837;DHT22;31548;51.420;-0.040;2023-05-07T08:41:55;15.30;99.90
45837;DHT22;31548;51.420;-0.040;2023-05-07T08:44:26;15.40;99.90
45837;DHT22;31548;51.420;-0.040;2023-05-07T08:46:58;15.50;99.90
45837;DHT22;31548;51.420;-0.040;2023-05-07T08:49:29;15.50;99.90
45837;DHT22;31548;51.420;-0.040;2023-05-07T08:51:57;15.60;99.90
45837;DHT22;31548;51.420;-0.040;2023-05-07T08:54:25;15.70;99.90
45837;DHT22;31548;51.420;-0.040;2023-05-07T08:56:53;15.80;99.90
45837;DHT22;31548;51.420;-0.040;2023-05-07T08:59:21;15.90;99.90
45837;DHT22;31548;51.420;-0.040;2023-05-07T09:01:48;16.00;99.90
45837;DHT22;31548;51.420;-0.040;2023-05-07T09:04:16;16.00;99.90
45837;DHT22;31548;51.420;-0.040;2023-05-07T09:06:45;16.10;99.90
45837;DHT22;31548;51.420;-0.040;2023-05-07T09:09:17;16.10;99.90
45837;DHT22;31548;51.420;-0.040;2023-05-07T09:11:46;16.20;99.90
45837;DHT22;31548;51.420;-0.040;2023-05-07T09:14:21;16.30;99.90
45837;DHT22;31548;51.420;-0.040;2023-05-07T09:16:51;16.40;99.90
45837;DHT22;31548;51.420;-0.040;2023-05-07T09:19:23;16.60;99.90
45837;DHT22;31548;51.420;-0.040;2023-05-07T09:22:02;16.60;99.90
45837;DHT22;31548;51.420;-0.040;2023-05-07T09:24:39;16.70;99.90
45837;DHT22;31548;51.420;-0.040;2023-05-07T09:27:09;16.60;99.90
45837;DHT22;31548;51.420;-0.040;2023-05-07T09:29:42;16.70;99.90
45837;DHT22;31548;51.420;-0.040;2023-05-07T09:32:10;16.90;99.90
45837;DHT22;31548;51.420;-0.040;2023-05-07T09:34:38;17.00;99.90
45837;DHT22;31548;51.420;-0.040;2023-05-07T09:37:07;17.00;99.90
45837;DHT22;31548;51.420;-0.040;2023-05-07T09:39:45;16.90;99.90
45837;DHT22;31548;51.420;-0.040;2023-05-07T09:42:23;16.80;99.90
45837;DHT22;31548;51.420;-0.040;2023-05-07T09:44:52;16.80;99.90
45837;DHT22;31548;51.420;-0.040;2023-05-07T09:47:24;16.90;99.90
45837;DHT22;31548;51.420;-0.040;2023-05-07T09:49:56;16.90;99.90
45837;DHT22;31548;51.420;-0.040;2023-05-07T09:52:26;16.90;99.90
45837;DHT22;31548;51.420;-0.040;2023-05-07T09:55:02;16.90;99.90
45837;DHT22;31548;51.420;-0.040;2023-05-07T09:57:33;16.80;99.90
45837;DHT22;31548;51.420;-0.040;2023-05-07T10:00:04;16.80;99.90
45837;DHT22;31548;51.420;-0.040;2023-05-07T10:02:51;16.70;99.90
45837;DHT22;31548;51.420;-0.040;2023-05-07T10:05:32;16.70;99.90
45837;DHT22;31548;51.420;-0.040;2023-05-07T10:08:01;16.70;99.90
45837;DHT22;31548;51.420;-0.040;2023-05-07T10:10:33;16.70;99.90
45837;DHT22;31548;51.420;-0.040;2023-05-07T10:13:02;16.70;99.90
45837;DHT22;31548;51.420;-0.040;2023-05-07T10:15:34;16.80;99.90
45837;DHT22;31548;51.420;-0.040;2023-05-07T10:18:06;16.90;99.90
45837;DHT22;31548;51.420;-0.040;2023-05-07T10:20:36;17.00;99.90
45837;DHT22;31548;51.420;-0.040;2023-05-07T10:23:07;17.20;99.90
45837;DHT22;31548;51.420;-0.040;2023-05-07T10:25:41;17.30;99.90
45837;DHT22;31548;51.420;-0.040;2023-05-07T10:28:17;17.20;99.90
45837;DHT22;31548;51.420;-0.040;2023-05-07T10:33:53;17.40;99.90
45837;DHT22;31548;51.420;-0.040;2023-05-07T10:36:23;17.30;99.90
45837;DHT22;31548;51.420;-0.040;2023-05-07T10:38:53;17.40;99.90
45837;DHT22;31548;51.420;-0.040;2023-05-07T10:41:21;17.40;99.90
45837;DHT22;31548;51.420;-0.040;2023-05-07T10:43:50;17.40;99.90
45837;DHT22;31548;51.420;-0.040;2023-05-07T10:46:25;17.30;99.90
45837;DHT22;31548;51.420;-0.040;2023-05-07T10:49:16;17.40;99.90
45837;DHT22;31548;51.420;-0.040;2023-05-07T10:52:18;17.40;99.90
45837;DHT22;31548;51.420;-0.040;2023-05-07T10:57:44;17.60;99.90
45837;DHT22;31548;51.420;-0.040;2023-05-07T11:05:37;17.50;99.90
45837;DHT22;31548;51.420;-0.040;2023-05-07T11:08:15;17.50;99.90
45837;DHT22;31548;51.420;-0.040;2023-05-07T11:10:56;17.60;99.90
45837;DHT22;31548;51.420;-0.040;2023-05-07T11:13:56;17.70;99.90
45837;DHT22;31548;51.420;-0.040;2023-05-07T11:16:41;17.70;99.90
45837;DHT22;31548;51.420;-0.040;2023-05-07T11:19:53;17.80;99.90
45837;DHT22;31548;51.420;-0.040;2023-05-07T11:22:37;17.80;99.90
45837;DHT22;31548;51.420;-0.040;2023-05-07T11:25:29;17.90;99.90
45837;DHT22;31548;51.420;-0.040;2023-05-07T11:28:18;18.10;99.90
45837;DHT22;31548;51.420;-0.040;2023-05-07T11:30:54;18.00;99.90
45837;DHT22;31548;51.420;-0.040;2023-05-07T11:33:24;17.90;99.90
45837;DHT22;31548;51.420;-0.040;2023-05-07T11:35:56;17.90;99.90
45837;DHT22;31548;51.420;-0.040;2023-05-07T11:38:33;17.90;99.90
45837;DHT22;31548;51.420;-0.040;2023-05-07T11:41:03;17.90;99.90
45837;DHT22;31548;51.420;-0.040;2023-05-07T11:43:32;17.80;99.90
45837;DHT22;31548;51.420;-0.040;2023-05-07T11:46:09;17.80;99.90
45837;DHT22;31548;51.420;-0.040;2023-05-07T11:48:38;17.60;99.90
45837;DHT22;31548;51.420;-0.040;2023-05-07T11:51:06;17.50;99.90
45837;DHT22;31548;51.420;-0.040;2023-05-07T11:53:43;17.40;99.90
45837;DHT22;31548;51.420;-0.040;2023-05-07T11:56:12;17.60;99.90
45837;DHT22;31548;51.420;-0.040;2023-05-07T11:58:40;17.70;99.90
45837;DHT22;31548;51.420;-0.040;2023-05-07T12:01:12;17.80;99.90
45837;DHT22;31548;51.420;-0.040;2023-05-07T12:03:40;17.90;99.90
45837;DHT22;31548;51.420;-0.040;2023-05-07T12:06:10;18.00;99.90
45837;DHT22;31548;51.420;-0.040;2023-05-07T12:08:40;18.00;99.90
45837;DHT22;31548;51.420;-0.040;2023-05-07T12:11:23;18.30;99.90
45837;DHT22;31548;51.420;-0.040;2023-05-07T12:13:51;18.30;99.90
45837;DHT22;31548;51.420;-0.040;2023-05-07T12:16:19;18.40;99.90
45837;DHT22;31548;51.420;-0.040;2023-05-07T12:18:46;18.50;99.90
45837;DHT22;31548;51.420;-0.040;2023-05-07T12:21:14;18.70;99.90
45837;DHT22;31548;51.420;-0.040;2023-05-07T12:23:41;18.70;99.90
45837;DHT22;31548;51.420;-0.040;2023-05-07T12:26:09;18.50;99.90
45837;DHT22;31548;51.420;-0.040;2023-05-07T12:28:38;18.60;99.90
45837;DHT22;31548;51.420;-0.040;2023-05-07T12:31:07;18.70;99.90
45837;DHT22;31548;51.420;-0.040;2023-05-07T12:33:35;18.70;99.90
45837;DHT22;31548;51.420;-0.040;2023-05-07T12:36:05;18.80;99.90
45837;DHT22;31548;51.420;-0.040;2023-05-07T12:38:40;18.80;99.90
45837;DHT22;31548;51.420;-0.040;2023-05-07T12:41:09;18.70;99.90
45837;DHT22;31548;51.420;-0.040;2023-05-07T12:43:37;18.60;99.90
45837;DHT22;31548;51.420;-0.040;2023-05-07T12:46:10;18.60;99.90
45837;DHT22;31548;51.420;-0.040;2023-05-07T12:48:38;18.50;99.90
45837;DHT22;31548;51.420;-0.040;2023-05-07T12:51:10;18.30;99.90
45837;DHT22;31548;51.420;-0.040;2023-05-07T12:53:41;18.20;99.90
45837;DHT22;31548;51.420;-0.040;2023-05-07T12:56:11;18.40;99.90
45837;DHT22;31548;51.420;-0.040;2023-05-07T12:58:39;18.40;99.90
45837;DHT22;31548;51.420;-0.040;2023-05-07T13:01:08;18.40;99.90
45837;DHT22;31548;51.420;-0.040;2023-05-07T13:03:38;18.50;99.90
45837;DHT22;31548;51.420;-0.040;2023-05-07T13:06:09;18.60;99.90
45837;DHT22;31548;51.420;-0.040;2023-05-07T13:08:41;18.60;99.90
45837;DHT22;31548;51.420;-0.040;2023-05-07T13:11:10;18.50;99.90
45837;DHT22;31548;51.420;-0.040;2023-05-07T13:13:40;18.50;99.90
45837;DHT22;31548;51.420;-0.040;2023-05-07T13:16:09;18.40;99.90
45837;DHT22;31548;51.420;-0.040;2023-05-07T13:18:39;18.60;99.90
45837;DHT22;31548;51.420;-0.040;2023-05-07T13:21:07;19.20;99.90
45837;DHT22;31548;51.420;-0.040;2023-05-07T13:23:34;19.20;99.90
45837;DHT22;31548;51.420;-0.040;2023-05-07T13:26:02;19.10;99.90
45837;DHT22;31548;51.420;-0.040;2023-05-07T13:28:40;19.20;99.90
45837;DHT22;31548;51.420;-0.040;2023-05-07T13:31:09;19.10;99.90
45837;DHT22;31548;51.420;-0.040;2023-05-07T13:33:36;19.00;99.90
45837;DHT22;31548;51.420;-0.040;2023-05-07T13:36:04;19.10;99.90
45837;DHT22;31548;51.420;-0.040;2023-05-07T13:38:32;19.10;99.90
45837;DHT22;31548;51.420;-0.040;2023-05-07T13:40:59;19.30;99.90
45837;DHT22;31548;51.420;-0.040;2023-05-07T13:43:27;19.90;99.90
45837;DHT22;31548;51.420;-0.040;2023-05-07T13:45:54;20.20;99.90
45837;DHT22;31548;51.420;-0.040;2023-05-07T13:48:22;20.50;99.90
45837;DHT22;31548;51.420;-0.040;2023-05-07T13:50:49;20.60;99.90
45837;DHT22;31548;51.420;-0.040;2023-05-07T13:53:17;20.60;99.90
45837;DHT22;31548;51.420;-0.040;2023-05-07T13:55:45;20.50;99.90
45837;DHT22;31548;51.420;-0.040;2023-05-07T13:58:13;20.10;99.90
45837;DHT22;31548;51.420;-0.040;2023-05-07T14:00:40;19.80;99.90
45837;DHT22;31548;51.420;-0.040;2023-05-07T14:03:08;19.90;99.90
45837;DHT22;31548;51.420;-0.040;2023-05-07T14:05:35;19.90;99.90
45837;DHT22;31548;51.420;-0.040;2023-05-07T14:08:03;19.90;99.90
45837;DHT22;31548;51.420;-0.040;2023-05-07T14:10:31;20.50;99.90
45837;DHT22;31548;51.420;-0.040;2023-05-07T14:13:01;21.10;99.90
45837;DHT22;31548;51.420;-0.040;2023-05-07T14:15:29;21.20;99.90
45837;DHT22;31548;51.420;-0.040;2023-05-07T16:11:22;26.00;98.30
45837;DHT22;31548;51.420;-0.040;2023-05-07T16:13:49;26.50;94.90
45837;DHT22;31548;51.420;-0.040;2023-05-07T16:16:17;25.50;95.20
45837;DHT22;31548;51.420;-0.040;2023-05-07T16:18:44;26.10;96.20
45837;DHT22;31548;51.420;-0.040;2023-05-07T16:21:11;26.20;95.10
45837;DHT22;31548;51.420;-0.040;2023-05-07T16:23:39;26.20;95.60
45837;DHT22;31548;51.420;-0.040;2023-05-07T16:26:06;26.60;95.80
45837;DHT22;31548;51.420;-0.040;2023-05-07T16:28:33;26.70;95.20
45837;DHT22;31548;51.420;-0.040;2023-05-07T16:31:00;26.90;94.40
45837;DHT22;31548;51.420;-0.040;2023-05-07T16:33:28;27.30;94.50
45837;DHT22;31548;51.420;-0.040;2023-05-07T16:35:55;27.70;94.50
45837;DHT22;31548;51.420;-0.040;2023-05-07T16:38:22;28.20;93.40
45837;DHT22;31548;51.420;-0.040;2023-05-07T16:40:50;28.40;93.80
45837;DHT22;31548;51.420;-0.040;2023-05-07T16:43:17;28.30;92.60
45837;DHT22;31548;51.420;-0.040;2023-05-07T16:45:45;27.80;92.00
45837;DHT22;31548;51.420;-0.040;2023-05-07T16:48:12;27.70;92.80
45837;DHT22;31548;51.420;-0.040;2023-05-07T16:50:39;27.90;92.20
45837;DHT22;31548;51.420;-0.040;2023-05-07T16:53:07;28.10;92.50
45837;DHT22;31548;51.420;-0.040;2023-05-07T16:55:36;28.10;92.80
45837;DHT22;31548;51.420;-0.040;2023-05-07T16:58:06;28.10;92.30
45837;DHT22;31548;51.420;-0.040;2023-05-07T17:00:34;28.20;91.60
45837;DHT22;31548;51.420;-0.040;2023-05-07T17:03:16;28.30;91.80
45837;DHT22;31548;51.420;-0.040;2023-05-07T17:05:43;26.60;92.40
45837;DHT22;31548;51.420;-0.040;2023-05-07T17:08:11;26.00;94.40
45837;DHT22;31548;51.420;-0.040;2023-05-07T17:10:40;25.70;93.40
45837;DHT22;31548;51.420;-0.040;2023-05-07T17:13:07;25.60;93.70
45837;DHT22;31548;51.420;-0.040;2023-05-07T17:15:35;25.30;94.30
45837;DHT22;31548;51.420;-0.040;2023-05-07T17:18:02;25.00;94.30
45837;DHT22;31548;51.420;-0.040;2023-05-07T17:20:29;25.00;94.50
45837;DHT22;31548;51.420;-0.040;2023-05-07T17:22:57;25.10;94.00
45837;DHT22;31548;51.420;-0.040;2023-05-07T17:25:24;25.10;94.70
45837;DHT22;31548;51.420;-0.040;2023-05-07T17:27:51;25.50;94.00
45837;DHT22;31548;51.420;-0.040;2023-05-07T17:30:19;25.10;94.10
45837;DHT22;31548;51.420;-0.040;2023-05-07T17:32:46;24.70;95.90
45837;DHT22;31548;51.420;-0.040;2023-05-07T17:35:14;24.50;95.20
45837;DHT22;31548;51.420;-0.040;2023-05-07T17:37:41;24.30;95.60